Time;durP1;ratioP1;P1;durP2;ratioP2;P2;SDS_P1;SDS_P2;PMS_P1;PMS_P2;Temp;Humidity;BMP_temperature;BMP_pressure;BME280_temperature;BME280_humidity;BME280_pressure;Samples;Min_cycle;Max_cycle;Signal;HPM_P1;HPM_P2
2023/05/24 00:02:49;;;;;;;30.58;22.33;;;;;;;;;;10240173;28;20518;-85
2023/05/24 00:07:50;;;;;;;31.98;21.77;;;;;;;;;;10243527;28;20043;-87
2023/05/24 00:12:51;;;;;;;32.67;21.35;;;;;;;;;;10238045;28;20477;-87
2023/05/24 00:17:52;;;;;;;30.90;21.27;;;;;;;;;;10242589;28;20074;-85
2023/05/24 00:22:53;;;;;;;31.98;23.35;;;;;;;;;;10219694;28;20051;-84
2023/05/24 00:27:54;;;;;;;29.85;22.48;;;;;;;;;;10224900;28;20108;-86
2023/05/24 00:32:55;;;;;;;32.03;23.30;;;;;;;;;;10255338;28;20493;-87
2023/05/24 00:37:56;;;;;;;29.88;22.52;;;;;;;;;;10223961;28;20098;-86
2023/05/24 00:42:57;;;;;;;31.38;23.63;;;;;;;;;;10233181;28;20035;-88
2023/05/24 00:47:58;;;;;;;33.05;23.33;;;;;;;;;;10224690;28;20031;-86
2023/05/24 00:53:00;;;;;;;30.92;23.23;;;;;;;;;;10241254;28;20031;-86
2023/05/24 00:58:01;;;;;;;32.90;22.27;;;;;;;;;;10239990;28;20381;-86
2023/05/24 01:03:02;;;;;;;32.67;23.15;;;;;;;;;;10241186;28;20046;-88
2023/05/24 01:08:09;;;;;;;32.78;22.52;;;;;;;;;;10223295;28;20074;-88
2023/05/24 01:13:34;;;;;;;29.50;22.50;;;;;;;;;;10240681;28;20703;-88
2023/05/24 01:18:39;;;;;;;31.73;24.15;;;;;;;;;;10196699;28;20133;-88
2023/05/24 01:24:04;;;;;;;32.57;23.50;;;;;;;;;;10214470;28;20179;-87
2023/05/24 01:29:06;;;;;;;32.30;22.45;;;;;;;;;;10203943;28;20122;-86
2023/05/24 01:34:08;;;;;;;31.55;23.05;;;;;;;;;;10223263;28;20836;-88
2023/05/24 01:39:10;;;;;;;34.38;24.70;;;;;;;;;;10240000;28;20050;-87
2023/05/24 01:44:29;;;;;;;29.88;23.55;;;;;;;;;;10218792;28;20647;-87
2023/05/24 01:49:33;;;;;;;32.83;24.23;;;;;;;;;;10222462;28;20039;-86
2023/05/24 01:54:38;;;;;;;35.30;24.83;;;;;;;;;;10231308;28;20474;-87
2023/05/24 01:59:41;;;;;;;38.22;26.88;;;;;;;;;;10236500;28;20039;-87
2023/05/24 02:04:42;;;;;;;39.45;27.58;;;;;;;;;;10247534;28;20514;-88
2023/05/24 02:09:43;;;;;;;43.10;30.48;;;;;;;;;;10246967;28;20472;-88
2023/05/24 02:14:44;;;;;;;47.10;31.77;;;;;;;;;;10245529;28;20043;-87
2023/05/24 02:19:45;;;;;;;44.25;31.48;;;;;;;;;;10247259;28;20094;-86
2023/05/24 02:24:47;;;;;;;49.47;33.30;;;;;;;;;;10233709;28;20121;-89
2023/05/24 02:29:48;;;;;;;49.78;35.50;;;;;;;;;;10253932;28;20023;-88
2023/05/24 02:34:49;;;;;;;57.95;38.13;;;;;;;;;;10228944;28;20035;-89
2023/05/24 02:39:50;;;;;;;60.72;40.08;;;;;;;;;;10235771;28;20083;-87
2023/05/24 02:44:51;;;;;;;61.45;40.78;;;;;;;;;;10228499;28;20527;-87
2023/05/24 02:49:55;;;;;;;53.42;36.28;;;;;;;;;;10246353;28;20035;-87
2023/05/24 02:54:56;;;;;;;48.95;34.10;;;;;;;;;;10245361;28;20102;-89
2023/05/24 02:59:58;;;;;;;48.33;32.08;;;;;;;;;;10219533;28;20463;-90
2023/05/24 03:04:59;;;;;;;46.28;33.90;;;;;;;;;;10227756;28;20043;-88
2023/05/24 03:10:00;;;;;;;54.58;34.65;;;;;;;;;;10204148;29;20106;-89
2023/05/24 03:15:02;;;;;;;51.63;33.85;;;;;;;;;;10202201;29;20123;-88
2023/05/24 03:20:10;;;;;;;45.67;31.55;;;;;;;;;;10207592;29;20066;-92
2023/05/24 03:25:11;;;;;;;42.75;28.20;;;;;;;;;;10217066;29;20032;-88
2023/05/24 03:30:12;;;;;;;42.05;28.40;;;;;;;;;;10203413;29;20484;-89
2023/05/24 03:35:13;;;;;;;37.92;26.30;;;;;;;;;;10219427;29;20051;-89
2023/05/24 03:40:14;;;;;;;34.22;24.40;;;;;;;;;;10202187;29;20073;-90
2023/05/24 03:45:15;;;;;;;37.33;24.20;;;;;;;;;;10219228;29;20059;-91
2023/05/24 03:50:17;;;;;;;34.97;23.95;;;;;;;;;;10204704;29;20035;-88
2023/05/24 03:55:17;;;;;;;30.55;23.25;;;;;;;;;;10199003;29;20036;-89
2023/05/24 04:00:19;;;;;;;29.75;22.02;;;;;;;;;;10202462;29;20502;-92
2023/05/24 04:05:20;;;;;;;34.10;23.88;;;;;;;;;;10203260;28;20054;-92
2023/05/24 04:10:21;;;;;;;29.10;22.13;;;;;;;;;;10215057;28;20024;-89
2023/05/24 04:15:23;;;;;;;32.60;23.08;;;;;;;;;;10225002;28;20038;-90
2023/05/24 04:20:24;;;;;;;32.13;23.42;;;;;;;;;;10224550;28;20053;-90
2023/05/24 04:25:26;;;;;;;32.47;23.75;;;;;;;;;;10224473;28;20046;-91
2023/05/24 04:30:29;;;;;;;28.55;20.88;;;;;;;;;;10232616;28;20497;-90
2023/05/24 04:35:30;;;;;;;28.30;19.88;;;;;;;;;;10223892;28;20121;-90
2023/05/24 04:40:31;;;;;;;27.42;20.38;;;;;;;;;;10237719;28;20451;-91
2023/05/24 04:45:32;;;;;;;26.45;20.27;;;;;;;;;;10224995;28;20062;-92
2023/05/24 04:50:34;;;;;;;27.17;20.15;;;;;;;;;;10242154;28;20110;-92
2023/05/24 04:55:35;;;;;;;26.42;19.45;;;;;;;;;;10225561;28;20035;-90
2023/05/24 05:00:36;;;;;;;24.10;16.88;;;;;;;;;;10224796;28;20126;-87
2023/05/24 05:05:37;;;;;;;27.95;19.65;;;;;;;;;;10253826;28;20063;-89
2023/05/24 05:10:38;;;;;;;23.48;16.08;;;;;;;;;;10242838;28;20066;-87
2023/05/24 05:15:39;;;;;;;19.90;14.77;;;;;;;;;;10223910;29;20063;-89
2023/05/24 05:20:40;;;;;;;17.42;10.70;;;;;;;;;;10225069;29;20134;-84
2023/05/24 05:25:41;;;;;;;18.48;10.82;;;;;;;;;;10224481;29;20034;-92
2023/05/24 05:30:44;;;;;;;14.55;9.05;;;;;;;;;;10232345;28;20038;-87
2023/05/24 05:35:44;;;;;;;11.23;8.05;;;;;;;;;;10210664;29;20042;-87
2023/05/24 05:40:46;;;;;;;11.52;8.05;;;;;;;;;;10223514;29;20043;-89
2023/05/24 05:45:47;;;;;;;16.02;10.13;;;;;;;;;;10224514;29;20039;-90
2023/05/24 05:50:48;;;;;;;14.05;8.50;;;;;;;;;;10224937;29;20035;-89
2023/05/24 05:55:49;;;;;;;11.70;7.68;;;;;;;;;;10240925;28;20033;-89
2023/05/24 06:00:50;;;;;;;12.85;8.10;;;;;;;;;;10222798;28;20031;-85
2023/05/24 06:05:51;;;;;;;14.63;9.82;;;;;;;;;;10222156;28;20487;-90
2023/05/24 06:10:52;;;;;;;13.23;8.38;;;;;;;;;;10223322;28;20038;-86
2023/05/24 06:15:54;;;;;;;13.10;7.57;;;;;;;;;;10221406;28;20079;-87
2023/05/24 06:20:55;;;;;;;17.90;9.77;;;;;;;;;;10239870;28;20459;-87
2023/05/24 06:25:56;;;;;;;16.65;8.68;;;;;;;;;;10239992;28;20128;-86
2023/05/24 06:30:57;;;;;;;15.00;9.07;;;;;;;;;;10234920;28;20067;-84
2023/05/24 06:35:58;;;;;;;14.40;9.32;;;;;;;;;;10230145;28;20130;-87
2023/05/24 06:40:59;;;;;;;14.80;8.95;;;;;;;;;;10229276;28;20051;-86
2023/05/24 06:46:00;;;;;;;14.30;9.27;;;;;;;;;;10229474;28;20106;-89
2023/05/24 06:51:01;;;;;;;15.13;9.25;;;;;;;;;;10228933;29;20031;-88
2023/05/24 06:56:02;;;;;;;18.17;10.50;;;;;;;;;;10247068;28;20031;-87
2023/05/24 07:01:03;;;;;;;16.83;9.98;;;;;;;;;;10229052;29;20130;-87
2023/05/24 07:06:04;;;;;;;15.32;8.98;;;;;;;;;;10245788;28;20170;-87
2023/05/24 07:11:06;;;;;;;12.50;6.93;;;;;;;;;;10228063;28;20027;-88
2023/05/24 07:16:07;;;;;;;12.88;7.95;;;;;;;;;;10245733;28;20027;-87
2023/05/24 07:21:08;;;;;;;10.73;6.97;;;;;;;;;;10227979;28;20149;-87
2023/05/24 07:26:11;;;;;;;10.40;6.78;;;;;;;;;;10227976;28;20073;-88
2023/05/24 07:31:12;;;;;;;12.38;7.13;;;;;;;;;;10228076;28;20027;-87
2023/05/24 07:36:14;;;;;;;10.73;6.82;;;;;;;;;;10246016;28;20039;-88
2023/05/24 07:41:16;;;;;;;11.48;7.45;;;;;;;;;;10227349;29;20152;-89
2023/05/24 07:46:17;;;;;;;14.48;9.38;;;;;;;;;;10244450;28;20045;-91
2023/05/24 07:51:19;;;;;;;13.70;9.10;;;;;;;;;;10227483;29;20366;-88
2023/05/24 07:56:20;;;;;;;15.25;8.85;;;;;;;;;;10228200;29;20035;-90
2023/05/24 08:01:22;;;;;;;14.18;8.02;;;;;;;;;;10226589;28;20065;-90
2023/05/24 08:06:23;;;;;;;11.48;7.38;;;;;;;;;;10227381;28;20059;-89
2023/05/24 08:11:25;;;;;;;15.50;8.85;;;;;;;;;;10227021;28;20031;-91
2023/05/24 08:16:26;;;;;;;14.45;8.27;;;;;;;;;;10228026;28;20098;-92
2023/05/24 08:21:28;;;;;;;17.98;10.20;;;;;;;;;;10225888;28;20044;-90
2023/05/24 08:26:29;;;;;;;17.35;7.50;;;;;;;;;;10227319;28;20098;-89
2023/05/24 08:31:32;;;;;;;16.42;8.95;;;;;;;;;;10228541;28;20055;-89
2023/05/24 08:36:33;;;;;;;16.05;9.63;;;;;;;;;;10212450;28;20027;-88
2023/05/24 08:41:36;;;;;;;16.30;9.02;;;;;;;;;;10240731;28;20399;-91
2023/05/24 08:46:38;;;;;;;12.88;6.80;;;;;;;;;;10240864;28;20685;-91
2023/05/24 08:51:39;;;;;;;12.23;6.55;;;;;;;;;;10228345;28;20027;-91
2023/05/24 08:56:40;;;;;;;13.55;7.63;;;;;;;;;;10229034;28;20035;-94
2023/05/24 09:01:42;;;;;;;16.23;9.10;;;;;;;;;;10240429;28;20065;-91
2023/05/24 09:06:43;;;;;;;11.65;7.53;;;;;;;;;;10239632;28;20046;-90
2023/05/24 09:11:44;;;;;;;10.48;7.38;;;;;;;;;;10227215;28;20027;-90
2023/05/24 09:16:45;;;;;;;11.38;7.05;;;;;;;;;;10226635;28;20062;-92
2023/05/24 09:22:00;;;;;;;16.42;8.88;;;;;;;;;;10237540;28;20039;-92
2023/05/24 09:27:05;;;;;;;10.45;6.93;;;;;;;;;;10224486;28;20079;-92
2023/05/24 09:32:13;;;;;;;9.13;6.27;;;;;;;;;;10226785;28;20035;-89
2023/05/24 09:37:15;;;;;;;14.75;8.73;;;;;;;;;;10226042;28;20302;-90
2023/05/24 09:42:23;;;;;;;13.15;8.27;;;;;;;;;;10231878;28;20047;-90
2023/05/24 09:47:32;;;;;;;11.60;6.20;;;;;;;;;;10233392;28;20039;-90
2023/05/24 09:52:36;;;;;;;8.65;5.70;;;;;;;;;;10266535;28;20031;-88
2023/05/24 09:57:39;;;;;;;10.98;6.75;;;;;;;;;;10226573;28;20184;-88
2023/05/24 10:02:40;;;;;;;12.43;7.60;;;;;;;;;;10246239;28;20538;-90
2023/05/24 10:07:41;;;;;;;11.95;7.13;;;;;;;;;;10256049;28;20050;-89
2023/05/24 10:12:46;;;;;;;11.90;8.45;;;;;;;;;;10236017;28;20069;-88
2023/05/24 10:17:47;;;;;;;16.15;9.23;;;;;;;;;;10233414;28;20042;-91
2023/05/24 10:22:51;;;;;;;18.30;10.32;;;;;;;;;;10249375;28;20046;-88
2023/05/24 10:28:06;;;;;;;18.52;12.18;;;;;;;;;;10230493;28;20027;-87
2023/05/24 10:33:10;;;;;;;15.90;9.07;;;;;;;;;;10250647;28;20027;-88
2023/05/24 10:38:11;;;;;;;10.75;7.28;;;;;;;;;;10230698;28;20042;-87
2023/05/24 10:43:12;;;;;;;12.20;8.65;;;;;;;;;;10229342;28;20023;-88
2023/05/24 10:48:14;;;;;;;18.33;12.52;;;;;;;;;;10247776;28;20545;-88
2023/05/24 10:53:19;;;;;;;13.75;9.38;;;;;;;;;;10248344;28;20675;-88
2023/05/24 10:58:20;;;;;;;16.52;9.82;;;;;;;;;;10274490;28;20035;-85
2023/05/24 11:03:23;;;;;;;16.50;9.43;;;;;;;;;;10247672;28;20544;-88
2023/05/24 11:08:34;;;;;;;12.20;7.57;;;;;;;;;;10205898;29;20051;-90
2023/05/24 11:13:38;;;;;;;11.48;6.97;;;;;;;;;;10209202;29;20031;-87
2023/05/24 11:18:39;;;;;;;12.07;7.07;;;;;;;;;;10218326;29;20044;-88
2023/05/24 11:23:40;;;;;;;12.82;6.35;;;;;;;;;;10206070;29;20039;-89
2023/05/24 11:28:42;;;;;;;10.60;6.90;;;;;;;;;;10225623;29;20042;-88
2023/05/24 11:33:43;;;;;;;11.30;7.07;;;;;;;;;;10211368;29;20035;-86
2023/05/24 11:38:44;;;;;;;8.88;5.63;;;;;;;;;;10211878;29;20381;-87
2023/05/24 11:43:45;;;;;;;9.40;6.03;;;;;;;;;;10210925;29;20322;-89
2023/05/24 11:49:05;;;;;;;12.00;7.15;;;;;;;;;;10209074;29;20020;-94
2023/05/24 11:54:45;;;;;;;14.10;9.70;;;;;;;;;;10213002;29;20562;-96
2023/05/24 12:00:10;;;;;;;15.13;9.30;;;;;;;;;;10225922;29;20514;-92
2023/05/24 12:05:13;;;;;;;14.97;9.23;;;;;;;;;;10202054;29;20492;-91
2023/05/24 12:10:26;;;;;;;12.60;7.45;;;;;;;;;;10206179;29;20150;-90
2023/05/24 12:15:34;;;;;;;10.43;6.85;;;;;;;;;;10220086;29;20055;-91
2023/05/24 12:20:37;;;;;;;10.90;6.97;;;;;;;;;;10220226;29;20111;-86
2023/05/24 12:25:38;;;;;;;16.23;9.63;;;;;;;;;;10204476;29;20036;-88
2023/05/24 12:30:42;;;;;;;13.52;7.90;;;;;;;;;;10202007;29;20054;-89
2023/05/24 12:35:43;;;;;;;10.20;7.70;;;;;;;;;;10201792;29;20075;-87
2023/05/24 12:40:44;;;;;;;10.93;6.65;;;;;;;;;;10216823;29;20126;-90
2023/05/24 12:45:45;;;;;;;8.75;6.35;;;;;;;;;;10204572;29;20032;-89
2023/05/24 12:50:46;;;;;;;11.13;8.77;;;;;;;;;;10203354;29;20148;-89
2023/05/24 12:56:00;;;;;;;16.35;10.68;;;;;;;;;;10208914;29;20031;-92
2023/05/24 13:01:14;;;;;;;15.00;9.85;;;;;;;;;;10205525;29;20055;-92
2023/05/24 13:06:17;;;;;;;12.23;8.55;;;;;;;;;;10216661;29;20053;-87
2023/05/24 13:11:18;;;;;;;9.65;6.68;;;;;;;;;;10231337;28;20034;-90
2023/05/24 13:16:20;;;;;;;12.32;7.53;;;;;;;;;;10243751;28;20020;-88
2023/05/24 13:21:21;;;;;;;9.35;6.28;;;;;;;;;;10245670;28;20046;-90
2023/05/24 13:26:23;;;;;;;9.20;6.47;;;;;;;;;;10240513;28;20037;-89
2023/05/24 13:31:24;;;;;;;14.02;7.32;;;;;;;;;;10227401;28;20039;-88
2023/05/24 13:36:29;;;;;;;8.57;5.78;;;;;;;;;;10244644;28;20063;-90
2023/05/24 13:41:30;;;;;;;8.48;6.30;;;;;;;;;;10227973;28;20051;-90
2023/05/24 13:46:35;;;;;;;10.05;7.40;;;;;;;;;;10268104;28;20427;-90
2023/05/24 13:51:36;;;;;;;10.77;7.05;;;;;;;;;;10239405;28;20028;-90
2023/05/24 13:56:38;;;;;;;10.13;6.45;;;;;;;;;;10227438;28;20950;-88
2023/05/24 14:01:41;;;;;;;11.32;5.90;;;;;;;;;;10250765;28;20154;-90
2023/05/24 14:06:48;;;;;;;8.63;5.68;;;;;;;;;;10234415;28;20099;-92
2023/05/24 14:11:51;;;;;;;11.48;6.53;;;;;;;;;;10251132;28;20027;-89
2023/05/24 14:16:56;;;;;;;10.32;6.93;;;;;;;;;;10240400;28;20030;-90
2023/05/24 14:22:00;;;;;;;14.63;7.88;;;;;;;;;;10239447;28;20414;-94
2023/05/24 14:27:03;;;;;;;10.30;7.53;;;;;;;;;;10256899;28;20081;-91
2023/05/24 14:32:10;;;;;;;12.48;8.98;;;;;;;;;;10241167;28;20027;-91
2023/05/24 14:37:17;;;;;;;11.48;8.05;;;;;;;;;;10244006;28;20028;-90
2023/05/24 14:42:20;;;;;;;12.75;10.10;;;;;;;;;;10235148;28;20054;-92
2023/05/24 14:47:21;;;;;;;15.00;10.15;;;;;;;;;;10253619;28;20526;-92
2023/05/24 14:52:31;;;;;;;20.10;11.95;;;;;;;;;;10258177;28;20058;-92
2023/05/24 14:57:35;;;;;;;15.45;11.43;;;;;;;;;;10239808;28;20031;-92
2023/05/24 15:02:40;;;;;;;15.00;11.50;;;;;;;;;;10235775;28;20050;-93
2023/05/24 15:07:41;;;;;;;16.75;11.00;;;;;;;;;;10248523;28;20050;-90
2023/05/24 15:12:51;;;;;;;13.73;10.00;;;;;;;;;;10239171;28;20031;-94
2023/05/24 15:17:53;;;;;;;15.40;9.32;;;;;;;;;;10240702;28;20029;-88
2023/05/24 15:22:54;;;;;;;16.77;10.75;;;;;;;;;;10232325;28;20039;-93
2023/05/24 15:27:58;;;;;;;16.35;10.70;;;;;;;;;;10228798;28;20023;-91
2023/05/24 15:32:59;;;;;;;15.60;9.55;;;;;;;;;;10226326;28;20102;-90
2023/05/24 15:38:00;;;;;;;19.20;9.20;;;;;;;;;;10225837;28;20031;-89
2023/05/24 15:43:01;;;;;;;15.30;8.18;;;;;;;;;;10225132;28;20049;-91
2023/05/24 15:48:03;;;;;;;11.88;8.30;;;;;;;;;;10215757;28;20043;-90
2023/05/24 15:53:06;;;;;;;14.32;8.48;;;;;;;;;;10224564;28;20071;-90
2023/05/24 15:58:14;;;;;;;14.77;8.02;;;;;;;;;;10227240;28;20043;-91
2023/05/24 16:03:18;;;;;;;13.32;8.90;;;;;;;;;;10236053;28;20115;-91
2023/05/24 16:08:26;;;;;;;16.10;8.10;;;;;;;;;;10225066;28;20680;-90
2023/05/24 16:13:27;;;;;;;14.23;8.20;;;;;;;;;;10224330;28;20035;-90
2023/05/24 16:18:32;;;;;;;14.60;8.40;;;;;;;;;;10220619;28;20576;-90
2023/05/24 16:23:33;;;;;;;12.95;7.63;;;;;;;;;;10211802;28;20785;-89
2023/05/24 16:28:34;;;;;;;13.93;8.07;;;;;;;;;;10232172;28;20038;-88
2023/05/24 16:33:42;;;;;;;13.63;7.28;;;;;;;;;;10510874;27;20745;-89
2023/05/24 16:38:43;;;;;;;13.07;7.85;;;;;;;;;;10461421;28;20034;-91
2023/05/24 16:43:47;;;;;;;15.63;9.05;;;;;;;;;;10406935;27;20022;-91
2023/05/24 16:48:48;;;;;;;14.57;10.43;;;;;;;;;;10438918;28;20033;-90
2023/05/24 16:53:49;;;;;;;17.38;10.52;;;;;;;;;;10422950;28;20054;-88
2023/05/24 16:58:52;;;;;;;18.33;10.43;;;;;;;;;;10408793;28;20024;-88
2023/05/24 17:03:55;;;;;;;17.45;10.10;;;;;;;;;;10464488;28;20037;-89
2023/05/24 17:08:56;;;;;;;15.73;10.27;;;;;;;;;;10394386;28;20036;-90
2023/05/24 17:13:57;;;;;;;17.20;9.20;;;;;;;;;;10447767;28;20373;-90
2023/05/24 17:18:58;;;;;;;16.58;9.52;;;;;;;;;;10391670;27;20134;-88
2023/05/24 17:24:05;;;;;;;16.48;9.43;;;;;;;;;;10398778;28;20086;-92
2023/05/24 17:29:06;;;;;;;18.80;9.23;;;;;;;;;;10432241;28;20066;-85
2023/05/24 17:34:07;;;;;;;16.38;9.07;;;;;;;;;;10400379;28;20037;-88
2023/05/24 17:39:10;;;;;;;11.25;9.00;;;;;;;;;;10393575;28;20026;-90
2023/05/24 17:44:11;;;;;;;15.65;8.55;;;;;;;;;;10365273;28;20030;-90
2023/05/24 17:49:14;;;;;;;11.95;8.02;;;;;;;;;;10373383;28;20433;-90
2023/05/24 17:54:15;;;;;;;16.63;8.40;;;;;;;;;;10362834;28;20481;-90
2023/05/24 17:59:17;;;;;;;13.18;8.30;;;;;;;;;;10359747;28;20075;-89
2023/05/24 18:04:20;;;;;;;15.93;8.13;;;;;;;;;;10371405;28;20498;-91
2023/05/24 18:09:21;;;;;;;13.60;8.70;;;;;;;;;;10365396;28;20465;-90
2023/05/24 18:14:22;;;;;;;16.05;8.50;;;;;;;;;;10375384;28;20121;-90
2023/05/24 18:19:25;;;;;;;15.40;9.15;;;;;;;;;;10370566;28;20065;-91
2023/05/24 18:24:28;;;;;;;15.35;9.02;;;;;;;;;;10366135;28;20107;-91
2023/05/24 18:29:31;;;;;;;14.85;8.48;;;;;;;;;;10359492;28;20063;-89
2023/05/24 18:34:35;;;;;;;14.57;8.32;;;;;;;;;;10414158;28;20118;-88
2023/05/24 18:39:36;;;;;;;12.65;8.05;;;;;;;;;;10370685;28;20032;-88
2023/05/24 18:44:37;;;;;;;12.90;8.65;;;;;;;;;;10381117;28;20065;-87
2023/05/24 18:49:41;;;;;;;16.13;8.18;;;;;;;;;;10367613;28;20049;-90
2023/05/24 18:54:42;;;;;;;12.38;7.78;;;;;;;;;;10356160;28;20506;-90
2023/05/24 18:59:43;;;;;;;12.48;7.75;;;;;;;;;;10366308;28;20030;-87
2023/05/24 19:04:47;;;;;;;16.50;8.52;;;;;;;;;;10373427;28;20590;-95
2023/05/24 19:09:48;;;;;;;15.85;9.50;;;;;;;;;;10422912;28;20038;-91
2023/05/24 19:14:49;;;;;;;16.77;9.32;;;;;;;;;;10416880;28;20533;-89
2023/05/24 19:19:54;;;;;;;16.88;9.23;;;;;;;;;;10410593;28;20071;-91
2023/05/24 19:24:57;;;;;;;16.92;10.05;;;;;;;;;;10356735;28;20477;-88
2023/05/24 19:30:03;;;;;;;17.17;10.18;;;;;;;;;;10358068;28;20068;-91
2023/05/24 19:35:05;;;;;;;19.65;10.00;;;;;;;;;;10391607;28;20063;-92
2023/05/24 19:40:06;;;;;;;16.80;10.13;;;;;;;;;;10430507;28;20095;-88
2023/05/24 19:45:12;;;;;;;16.40;9.43;;;;;;;;;;10436562;28;20446;-91
2023/05/24 19:50:13;;;;;;;18.15;9.73;;;;;;;;;;10365015;28;20026;-89
2023/05/24 19:55:14;;;;;;;14.52;9.50;;;;;;;;;;10355037;28;20485;-90
2023/05/24 20:00:15;;;;;;;14.38;8.80;;;;;;;;;;10354973;28;20539;-89
2023/05/24 20:05:16;;;;;;;16.25;9.23;;;;;;;;;;10361630;28;20073;-88
2023/05/24 20:10:17;;;;;;;20.60;10.23;;;;;;;;;;10424807;28;20030;-88
2023/05/24 20:15:20;;;;;;;15.10;9.30;;;;;;;;;;10357325;28;20026;-88
2023/05/24 20:20:24;;;;;;;15.48;9.85;;;;;;;;;;10360812;28;20041;-90
2023/05/24 20:25:28;;;;;;;17.05;9.40;;;;;;;;;;10354224;28;20508;-89
2023/05/24 20:30:30;;;;;;;16.83;9.73;;;;;;;;;;10355491;28;20053;-89
2023/05/24 20:35:31;;;;;;;19.92;10.40;;;;;;;;;;10423009;28;20022;-89
2023/05/24 20:40:32;;;;;;;13.35;9.05;;;;;;;;;;10355741;28;20034;-89
2023/05/24 20:45:33;;;;;;;15.20;9.57;;;;;;;;;;10357177;28;20041;-89
2023/05/24 20:50:34;;;;;;;18.38;9.70;;;;;;;;;;10355052;28;20125;-91
2023/05/24 20:55:34;;;;;;;15.18;9.75;;;;;;;;;;10424557;28;20022;-90
2023/05/24 21:00:35;;;;;;;16.10;10.00;;;;;;;;;;10358932;28;20041;-89
2023/05/24 21:05:38;;;;;;;19.42;10.48;;;;;;;;;;10365817;28;20061;-89
2023/05/24 21:10:42;;;;;;;18.63;11.45;;;;;;;;;;10360657;28;20114;-92
2023/05/24 21:15:45;;;;;;;18.67;10.95;;;;;;;;;;10361533;28;20037;-91
2023/05/24 21:20:46;;;;;;;20.05;11.75;;;;;;;;;;10365173;28;20034;-90
2023/05/24 21:25:47;;;;;;;21.17;10.95;;;;;;;;;;10362335;28;20113;-88
2023/05/24 21:30:48;;;;;;;16.23;11.18;;;;;;;;;;10366182;28;20053;-89
2023/05/24 21:35:53;;;;;;;16.80;10.52;;;;;;;;;;10359860;28;20033;-89
2023/05/24 21:40:54;;;;;;;17.95;11.65;;;;;;;;;;10359994;28;20041;-90
2023/05/24 21:45:57;;;;;;;20.00;11.02;;;;;;;;;;10364832;28;20103;-90
2023/05/24 21:50:59;;;;;;;20.45;11.25;;;;;;;;;;10344427;28;20038;-88
2023/05/24 21:56:04;;;;;;;21.20;12.25;;;;;;;;;;10428612;28;20046;-89
2023/05/24 22:01:07;;;;;;;;;;;;;;;;;;10361515;28;20493;-89
2023/05/24 22:06:20;;;;;;;21.30;13.48;;;;;;;;;;10429644;28;20269;-91
2023/05/24 22:11:33;;;;;;;19.83;12.48;;;;;;;;;;10359684;28;20427;-91
2023/05/24 22:16:36;;;;;;;23.25;13.02;;;;;;;;;;10359534;28;20025;-88
2023/05/24 22:21:42;;;;;;;24.38;13.77;;;;;;;;;;10428144;28;20037;-90
2023/05/24 22:26:45;;;;;;;20.85;13.52;;;;;;;;;;10367870;28;20029;-89
2023/05/24 22:31:46;;;;;;;18.23;11.80;;;;;;;;;;10361813;28;20053;-89
2023/05/24 22:36:47;;;;;;;21.83;12.85;;;;;;;;;;10360078;28;20481;-89
2023/05/24 22:41:53;;;;;;;21.55;11.82;;;;;;;;;;10370766;28;20030;-89
2023/05/24 22:46:55;;;;;;;18.10;11.63;;;;;;;;;;10360813;28;20044;-89
2023/05/24 22:51:56;;;;;;;21.95;11.93;;;;;;;;;;10359688;28;20046;-90
2023/05/24 22:56:57;;;;;;;22.55;13.18;;;;;;;;;;10423582;28;20046;-91
2023/05/24 23:02:04;;;;;;;21.13;13.55;;;;;;;;;;10358790;28;20030;-89
2023/05/24 23:07:16;;;;;;;25.92;15.00;;;;;;;;;;10357493;28;20022;-89
2023/05/24 23:12:19;;;;;;;24.65;14.02;;;;;;;;;;10359833;28;20385;-92
2023/05/24 23:17:27;;;;;;;27.33;16.38;;;;;;;;;;10357398;28;20040;-89
2023/05/24 23:22:30;;;;;;;29.85;18.30;;;;;;;;;;10358046;28;20036;-88
2023/05/24 23:27:33;;;;;;;27.48;16.33;;;;;;;;;;10356692;28;20429;-87
2023/05/24 23:32:39;;;;;;;23.23;14.20;;;;;;;;;;10364153;28;20066;-87
2023/05/24 23:37:40;;;;;;;18.58;12.50;;;;;;;;;;10361671;28;20036;-88
2023/05/24 23:42:41;;;;;;;23.23;12.38;;;;;;;;;;10355795;28;20909;-88
2023/05/24 23:47:48;;;;;;;23.38;15.00;;;;;;;;;;10363824;28;20029;-89
2023/05/24 23:52:50;;;;;;;22.48;13.88;;;;;;;;;;10357968;28;20482;-88
2023/05/24 23:57:52;;;;;;;24.10;13.77;;;;;;;;;;10369857;28;20091;-91
